sensor_id;sensor_type;location;lat;lon;timestamp;temperature;humidity
3194;DHT22;1608;50.860;13.466;2022-10-26T00:00:42;10.10;99.90
3194;DHT22;1608;50.860;13.466;2022-10-26T00:03:09;10.00;99.90
3194;DHT22;1608;50.860;13.466;2022-10-26T00:05:35;10.00;99.90
3194;DHT22;1608;50.860;13.466;2022-10-26T00:08:02;10.00;99.90
3194;DHT22;1608;50.860;13.466;2022-10-26T00:10:29;9.90;99.90
3194;DHT22;1608;50.860;13.466;2022-10-26T00:12:56;9.90;99.90
3194;DHT22;1608;50.860;13.466;2022-10-26T00:15:22;9.80;99.90
3194;DHT22;1608;50.860;13.466;2022-10-26T00:17:50;9.80;99.90
3194;DHT22;1608;50.860;13.466;2022-10-26T00:20:17;9.70;99.90
3194;DHT22;1608;50.860;13.466;2022-10-26T00:22:44;9.70;99.90
3194;DHT22;1608;50.860;13.466;2022-10-26T00:27:55;9.50;99.90
3194;DHT22;1608;50.860;13.466;2022-10-26T00:30:21;9.50;99.90
3194;DHT22;1608;50.860;13.466;2022-10-26T00:32:48;9.50;99.90
3194;DHT22;1608;50.860;13.466;2022-10-26T00:35:16;9.50;99.90
3194;DHT22;1608;50.860;13.466;2022-10-26T00:37:43;9.50;99.90
3194;DHT22;1608;50.860;13.466;2022-10-26T00:40:10;9.50;99.90
3194;DHT22;1608;50.860;13.466;2022-10-26T00:42:37;9.50;99.90
3194;DHT22;1608;50.860;13.466;2022-10-26T00:45:14;9.50;99.90
3194;DHT22;1608;50.860;13.466;2022-10-26T00:47:46;9.60;99.90
3194;DHT22;1608;50.860;13.466;2022-10-26T00:50:19;9.60;99.90
3194;DHT22;1608;50.860;13.466;2022-10-26T00:52:48;9.50;99.90
3194;DHT22;1608;50.860;13.466;2022-10-26T00:55:16;9.50;99.90
3194;DHT22;1608;50.860;13.466;2022-10-26T00:57:46;9.50;99.90
3194;DHT22;1608;50.860;13.466;2022-10-26T01:00:14;9.50;99.90
3194;DHT22;1608;50.860;13.466;2022-10-26T01:02:42;9.50;99.90
3194;DHT22;1608;50.860;13.466;2022-10-26T01:05:11;9.50;99.90
3194;DHT22;1608;50.860;13.466;2022-10-26T01:07:40;9.40;99.90
3194;DHT22;1608;50.860;13.466;2022-10-26T01:10:08;9.40;99.90
3194;DHT22;1608;50.860;13.466;2022-10-26T01:12:35;9.30;99.90
3194;DHT22;1608;50.860;13.466;2022-10-26T01:15:03;9.30;99.90
3194;DHT22;1608;50.860;13.466;2022-10-26T01:17:51;9.30;99.90
3194;DHT22;1608;50.860;13.466;2022-10-26T01:23:25;9.20;99.90
3194;DHT22;1608;50.860;13.466;2022-10-26T01:26:24;9.30;99.90
3194;DHT22;1608;50.860;13.466;2022-10-26T01:31:57;9.20;99.90
3194;DHT22;1608;50.860;13.466;2022-10-26T01:34:31;9.20;99.90
3194;DHT22;1608;50.860;13.466;2022-10-26T01:37:05;9.20;99.90
3194;DHT22;1608;50.860;13.466;2022-10-26T01:39:38;9.20;99.90
3194;DHT22;1608;50.860;13.466;2022-10-26T01:42:08;9.10;99.90
3194;DHT22;1608;50.860;13.466;2022-10-26T01:44:39;9.10;99.90
3194;DHT22;1608;50.860;13.466;2022-10-26T01:47:10;9.10;99.90
3194;DHT22;1608;50.860;13.466;2022-10-26T01:49:41;9.10;99.90
3194;DHT22;1608;50.860;13.466;2022-10-26T01:52:10;9.10;99.90
3194;DHT22;1608;50.860;13.466;2022-10-26T01:54:37;10.20;99.90
3194;DHT22;1608;50.860;13.466;2022-10-26T01:57:05;9.00;99.90
3194;DHT22;1608;50.860;13.466;2022-10-26T01:59:53;9.00;99.90
3194;DHT22;1608;50.860;13.466;2022-10-26T02:02:38;9.00;99.90
3194;DHT22;1608;50.860;13.466;2022-10-26T02:08:42;9.00;99.90
3194;DHT22;1608;50.860;13.466;2022-10-26T02:11:20;8.90;99.90
3194;DHT22;1608;50.860;13.466;2022-10-26T02:13:55;8.90;99.90
3194;DHT22;1608;50.860;13.466;2022-10-26T02:16:24;9.00;99.90
3194;DHT22;1608;50.860;13.466;2022-10-26T02:18:59;10.00;99.90
3194;DHT22;1608;50.860;13.466;2022-10-26T02:21:30;8.90;99.90
3194;DHT22;1608;50.860;13.466;2022-10-26T02:23:59;8.90;99.90
3194;DHT22;1608;50.860;13.466;2022-10-26T02:26:27;8.90;99.90
3194;DHT22;1608;50.860;13.466;2022-10-26T02:28:58;8.90;99.90
3194;DHT22;1608;50.860;13.466;2022-10-26T02:31:28;8.90;99.90
3194;DHT22;1608;50.860;13.466;2022-10-26T02:34:00;8.80;99.90
3194;DHT22;1608;50.860;13.466;2022-10-26T02:36:30;8.90;99.90
3194;DHT22;1608;50.860;13.466;2022-10-26T02:38:59;8.90;99.90
3194;DHT22;1608;50.860;13.466;2022-10-26T02:41:29;8.90;99.90
3194;DHT22;1608;50.860;13.466;2022-10-26T02:43:59;8.90;99.90
3194;DHT22;1608;50.860;13.466;2022-10-26T02:46:27;8.90;99.90
3194;DHT22;1608;50.860;13.466;2022-10-26T02:48:56;8.90;99.90
3194;DHT22;1608;50.860;13.466;2022-10-26T02:51:27;8.90;99.90
3194;DHT22;1608;50.860;13.466;2022-10-26T02:53:58;8.90;99.90
3194;DHT22;1608;50.860;13.466;2022-10-26T02:56:29;11.40;99.90
3194;DHT22;1608;50.860;13.466;2022-10-26T02:58:59;8.80;99.90
3194;DHT22;1608;50.860;13.466;2022-10-26T03:01:28;8.80;99.90
3194;DHT22;1608;50.860;13.466;2022-10-26T03:03:57;8.70;99.90
3194;DHT22;1608;50.860;13.466;2022-10-26T03:06:25;8.70;99.90
3194;DHT22;1608;50.860;13.466;2022-10-26T03:08:52;8.70;99.90
3194;DHT22;1608;50.860;13.466;2022-10-26T03:11:19;8.70;99.90
3194;DHT22;1608;50.860;13.466;2022-10-26T03:13:46;8.70;99.90
3194;DHT22;1608;50.860;13.466;2022-10-26T03:16:12;8.60;99.90
3194;DHT22;1608;50.860;13.466;2022-10-26T03:18:39;8.60;99.90
3194;DHT22;1608;50.860;13.466;2022-10-26T03:21:07;8.60;99.90
3194;DHT22;1608;50.860;13.466;2022-10-26T03:23:34;8.60;99.90
3194;DHT22;1608;50.860;13.466;2022-10-26T03:26:01;8.50;99.90
3194;DHT22;1608;50.860;13.466;2022-10-26T03:28:27;8.50;99.90
3194;DHT22;1608;50.860;13.466;2022-10-26T03:30:54;8.50;99.90
3194;DHT22;1608;50.860;13.466;2022-10-26T03:33:21;8.40;99.90
3194;DHT22;1608;50.860;13.466;2022-10-26T03:35:53;8.40;99.90
3194;DHT22;1608;50.860;13.466;2022-10-26T03:38:22;8.40;99.90
3194;DHT22;1608;50.860;13.466;2022-10-26T03:40:49;8.40;99.90
3194;DHT22;1608;50.860;13.466;2022-10-26T03:43:15;8.40;99.90
3194;DHT22;1608;50.860;13.466;2022-10-26T03:45:42;8.40;99.90
3194;DHT22;1608;50.860;13.466;2022-10-26T03:50:36;8.40;99.90
3194;DHT22;1608;50.860;13.466;2022-10-26T03:53:03;8.30;99.90
3194;DHT22;1608;50.860;13.466;2022-10-26T03:55:31;8.30;99.90
3194;DHT22;1608;50.860;13.466;2022-10-26T03:57:57;8.30;99.90
3194;DHT22;1608;50.860;13.466;2022-10-26T04:00:24;8.30;99.90
3194;DHT22;1608;50.860;13.466;2022-10-26T04:02:55;8.30;99.90
3194;DHT22;1608;50.860;13.466;2022-10-26T04:05:22;8.20;99.90
3194;DHT22;1608;50.860;13.466;2022-10-26T04:07:53;8.10;99.90
3194;DHT22;1608;50.860;13.466;2022-10-26T04:10:20;8.10;99.90
3194;DHT22;1608;50.860;13.466;2022-10-26T04:12:48;8.10;99.90
3194;DHT22;1608;50.860;13.466;2022-10-26T04:15:16;8.00;99.90
3194;DHT22;1608;50.860;13.466;2022-10-26T04:17:42;8.00;99.90
3194;DHT22;1608;50.860;13.466;2022-10-26T04:20:10;8.10;99.90
3194;DHT22;1608;50.860;13.466;2022-10-26T04:22:37;8.10;99.90
3194;DHT22;1608;50.860;13.466;2022-10-26T04:25:04;8.10;99.90
3194;DHT22;1608;50.860;13.466;2022-10-26T04:27:31;8.10;99.90
3194;DHT22;1608;50.860;13.466;2022-10-26T04:29:59;8.10;99.90
3194;DHT22;1608;50.860;13.466;2022-10-26T04:32:26;8.10;99.90
3194;DHT22;1608;50.860;13.466;2022-10-26T04:34:53;8.10;99.90
3194;DHT22;1608;50.860;13.466;2022-10-26T04:37:20;8.00;99.90
3194;DHT22;1608;50.860;13.466;2022-10-26T04:39:46;8.00;99.90
3194;DHT22;1608;50.860;13.466;2022-10-26T04:42:13;8.10;99.90
3194;DHT22;1608;50.860;13.466;2022-10-26T04:44:40;8.10;99.90
3194;DHT22;1608;50.860;13.466;2022-10-26T04:47:08;8.10;99.90
3194;DHT22;1608;50.860;13.466;2022-10-26T04:49:34;8.10;99.90
3194;DHT22;1608;50.860;13.466;2022-10-26T04:52:01;8.10;99.90
3194;DHT22;1608;50.860;13.466;2022-10-26T04:54:28;8.10;99.90
3194;DHT22;1608;50.860;13.466;2022-10-26T04:56:54;8.20;99.90
3194;DHT22;1608;50.860;13.466;2022-10-26T04:59:21;8.20;99.90
3194;DHT22;1608;50.860;13.466;2022-10-26T05:01:48;8.20;99.90
3194;DHT22;1608;50.860;13.466;2022-10-26T05:04:16;8.30;99.90
3194;DHT22;1608;50.860;13.466;2022-10-26T05:06:42;8.30;99.90
3194;DHT22;1608;50.860;13.466;2022-10-26T05:09:09;8.40;99.90
3194;DHT22;1608;50.860;13.466;2022-10-26T05:11:36;8.40;99.90
3194;DHT22;1608;50.860;13.466;2022-10-26T05:14:03;8.40;99.90
3194;DHT22;1608;50.860;13.466;2022-10-26T05:16:29;8.40;99.90
3194;DHT22;1608;50.860;13.466;2022-10-26T05:18:56;8.40;99.90
3194;DHT22;1608;50.860;13.466;2022-10-26T05:21:24;8.40;99.90
3194;DHT22;1608;50.860;13.466;2022-10-26T05:23:51;8.50;99.90
3194;DHT22;1608;50.860;13.466;2022-10-26T05:26:20;8.50;99.90
3194;DHT22;1608;50.860;13.466;2022-10-26T05:28:46;8.50;99.90
3194;DHT22;1608;50.860;13.466;2022-10-26T05:31:13;8.40;99.90
3194;DHT22;1608;50.860;13.466;2022-10-26T05:33:40;8.60;99.90
3194;DHT22;1608;50.860;13.466;2022-10-26T05:36:07;8.60;99.90
3194;DHT22;1608;50.860;13.466;2022-10-26T05:38:35;8.50;99.90
3194;DHT22;1608;50.860;13.466;2022-10-26T05:41:01;8.50;99.90
3194;DHT22;1608;50.860;13.466;2022-10-26T05:43:28;8.40;99.90
3194;DHT22;1608;50.860;13.466;2022-10-26T05:45:55;8.50;99.90
3194;DHT22;1608;50.860;13.466;2022-10-26T05:48:22;8.40;99.90
3194;DHT22;1608;50.860;13.466;2022-10-26T05:50:48;8.30;99.90
3194;DHT22;1608;50.860;13.466;2022-10-26T05:53:15;8.30;99.90
3194;DHT22;1608;50.860;13.466;2022-10-26T05:55:44;8.30;99.90
3194;DHT22;1608;50.860;13.466;2022-10-26T05:58:12;8.40;99.90
3194;DHT22;1608;50.860;13.466;2022-10-26T06:00:49;8.50;99.90
3194;DHT22;1608;50.860;13.466;2022-10-26T06:03:28;8.50;99.90
3194;DHT22;1608;50.860;13.466;2022-10-26T06:05:58;8.50;99.90
3194;DHT22;1608;50.860;13.466;2022-10-26T06:08:27;8.50;99.90
3194;DHT22;1608;50.860;13.466;2022-10-26T06:10:56;8.60;99.90
3194;DHT22;1608;50.860;13.466;2022-10-26T06:13:24;8.70;99.90
3194;DHT22;1608;50.860;13.466;2022-10-26T06:16:01;8.70;99.90
3194;DHT22;1608;50.860;13.466;2022-10-26T06:18:38;8.70;99.90
3194;DHT22;1608;50.860;13.466;2022-10-26T06:21:19;8.80;99.90
3194;DHT22;1608;50.860;13.466;2022-10-26T06:23:54;8.80;99.90
3194;DHT22;1608;50.860;13.466;2022-10-26T06:26:33;8.90;99.90
3194;DHT22;1608;50.860;13.466;2022-10-26T06:29:13;8.90;99.90
3194;DHT22;1608;50.860;13.466;2022-10-26T06:31:44;9.00;99.90
3194;DHT22;1608;50.860;13.466;2022-10-26T06:34:17;9.20;99.90
3194;DHT22;1608;50.860;13.466;2022-10-26T06:36:46;9.30;99.90
3194;DHT22;1608;50.860;13.466;2022-10-26T06:39:15;9.30;99.90
3194;DHT22;1608;50.860;13.466;2022-10-26T06:41:45;9.50;99.90
3194;DHT22;1608;50.860;13.466;2022-10-26T06:44:18;9.70;99.90
3194;DHT22;1608;50.860;13.466;2022-10-26T06:46:49;9.90;99.90
3194;DHT22;1608;50.860;13.466;2022-10-26T06:49:21;10.00;99.90
3194;DHT22;1608;50.860;13.466;2022-10-26T06:51:54;10.20;99.90
3194;DHT22;1608;50.860;13.466;2022-10-26T06:54:24;10.40;99.90
3194;DHT22;1608;50.860;13.466;2022-10-26T06:56:54;10.60;99.90
3194;DHT22;1608;50.860;13.466;2022-10-26T06:59:31;10.70;99.90
3194;DHT22;1608;50.860;13.466;2022-10-26T07:01:59;10.80;99.90
3194;DHT22;1608;50.860;13.466;2022-10-26T07:04:25;10.90;99.90
3194;DHT22;1608;50.860;13.466;2022-10-26T07:06:52;11.10;99.90
3194;DHT22;1608;50.860;13.466;2022-10-26T07:09:21;11.20;99.90
3194;DHT22;1608;50.860;13.466;2022-10-26T07:11:48;11.30;99.90
3194;DHT22;1608;50.860;13.466;2022-10-26T07:14:16;11.50;99.90
3194;DHT22;1608;50.860;13.466;2022-10-26T07:16:42;11.80;99.90
3194;DHT22;1608;50.860;13.466;2022-10-26T07:19:09;11.90;99.90
3194;DHT22;1608;50.860;13.466;2022-10-26T07:21:36;12.10;99.90
3194;DHT22;1608;50.860;13.466;2022-10-26T07:24:03;12.20;99.90
3194;DHT22;1608;50.860;13.466;2022-10-26T07:26:30;12.50;99.90
3194;DHT22;1608;50.860;13.466;2022-10-26T07:28:56;12.60;99.90
3194;DHT22;1608;50.860;13.466;2022-10-26T07:31:24;12.70;99.90
3194;DHT22;1608;50.860;13.466;2022-10-26T07:33:52;12.80;99.90
3194;DHT22;1608;50.860;13.466;2022-10-26T07:36:19;13.10;99.90
3194;DHT22;1608;50.860;13.466;2022-10-26T07:38:46;13.10;99.90
3194;DHT22;1608;50.860;13.466;2022-10-26T07:41:12;13.40;99.90
3194;DHT22;1608;50.860;13.466;2022-10-26T07:43:39;13.60;99.90
3194;DHT22;1608;50.860;13.466;2022-10-26T07:46:06;14.20;99.90
3194;DHT22;1608;50.860;13.466;2022-10-26T07:48:34;14.20;99.90
3194;DHT22;1608;50.860;13.466;2022-10-26T07:51:01;14.60;99.90
3194;DHT22;1608;50.860;13.466;2022-10-26T07:53:27;14.80;99.90
3194;DHT22;1608;50.860;13.466;2022-10-26T07:55:54;15.10;99.90
3194;DHT22;1608;50.860;13.466;2022-10-26T07:58:21;15.40;99.90
3194;DHT22;1608;50.860;13.466;2022-10-26T08:00:52;15.90;99.90
3194;DHT22;1608;50.860;13.466;2022-10-26T08:03:19;16.10;99.90
3194;DHT22;1608;50.860;13.466;2022-10-26T08:05:48;16.40;99.90
3194;DHT22;1608;50.860;13.466;2022-10-26T08:08:18;16.80;99.90
3194;DHT22;1608;50.860;13.466;2022-10-26T08:10:45;16.80;99.90
3194;DHT22;1608;50.860;13.466;2022-10-26T08:13:13;17.00;99.90
3194;DHT22;1608;50.860;13.466;2022-10-26T08:15:40;17.10;99.90
3194;DHT22;1608;50.860;13.466;2022-10-26T08:18:06;17.10;99.90
3194;DHT22;1608;50.860;13.466;2022-10-26T08:20:33;17.40;99.90
3194;DHT22;1608;50.860;13.466;2022-10-26T08:23:01;17.60;99.90
3194;DHT22;1608;50.860;13.466;2022-10-26T08:25:30;17.80;99.90
3194;DHT22;1608;50.860;13.466;2022-10-26T08:28:00;18.10;99.90
3194;DHT22;1608;50.860;13.466;2022-10-26T08:30:26;18.20;99.90
3194;DHT22;1608;50.860;13.466;2022-10-26T08:32:57;18.50;99.90
3194;DHT22;1608;50.860;13.466;2022-10-26T08:35:24;18.60;99.90
3194;DHT22;1608;50.860;13.466;2022-10-26T08:37:51;18.60;99.90
3194;DHT22;1608;50.860;13.466;2022-10-26T08:40:23;18.60;99.90
3194;DHT22;1608;50.860;13.466;2022-10-26T08:42:54;18.90;99.90
3194;DHT22;1608;50.860;13.466;2022-10-26T08:45:25;18.80;99.90
3194;DHT22;1608;50.860;13.466;2022-10-26T08:47:55;18.70;99.90
3194;DHT22;1608;50.860;13.466;2022-10-26T08:50:25;18.50;99.90
3194;DHT22;1608;50.860;13.466;2022-10-26T08:52:58;18.30;99.90
3194;DHT22;1608;50.860;13.466;2022-10-26T08:55:33;18.10;99.90
3194;DHT22;1608;50.860;13.466;2022-10-26T08:58:06;17.80;99.90
3194;DHT22;1608;50.860;13.466;2022-10-26T09:00:36;17.60;99.90
3194;DHT22;1608;50.860;13.466;2022-10-26T09:03:13;17.50;99.90
3194;DHT22;1608;50.860;13.466;2022-10-26T09:05:49;17.30;99.90
3194;DHT22;1608;50.860;13.466;2022-10-26T09:08:22;17.20;99.90
3194;DHT22;1608;50.860;13.466;2022-10-26T09:10:56;17.10;99.90
3194;DHT22;1608;50.860;13.466;2022-10-26T09:13:33;17.10;99.90
3194;DHT22;1608;50.860;13.466;2022-10-26T09:16:08;16.90;99.90
3194;DHT22;1608;50.860;13.466;2022-10-26T09:18:45;16.90;99.90
3194;DHT22;1608;50.860;13.466;2022-10-26T09:21:32;16.90;99.90
3194;DHT22;1608;50.860;13.466;2022-10-26T09:24:05;16.80;99.90
3194;DHT22;1608;50.860;13.466;2022-10-26T09:26:40;16.60;99.90
3194;DHT22;1608;50.860;13.466;2022-10-26T09:29:12;16.60;99.90
3194;DHT22;1608;50.860;13.466;2022-10-26T09:31:41;16.60;99.90
3194;DHT22;1608;50.860;13.466;2022-10-26T09:34:17;16.60;99.90
3194;DHT22;1608;50.860;13.466;2022-10-26T09:36:45;16.60;99.90
3194;DHT22;1608;50.860;13.466;2022-10-26T09:39:16;16.60;99.90
3194;DHT22;1608;50.860;13.466;2022-10-26T09:41:49;16.70;99.90
3194;DHT22;1608;50.860;13.466;2022-10-26T09:44:22;16.70;99.90
3194;DHT22;1608;50.860;13.466;2022-10-26T09:46:55;16.70;99.90
3194;DHT22;1608;50.860;13.466;2022-10-26T09:49:27;16.70;99.90
3194;DHT22;1608;50.860;13.466;2022-10-26T09:51:57;16.70;99.90
3194;DHT22;1608;50.860;13.466;2022-10-26T09:54:24;16.80;99.90
3194;DHT22;1608;50.860;13.466;2022-10-26T09:56:54;16.90;99.90
3194;DHT22;1608;50.860;13.466;2022-10-26T09:59:23;16.90;99.90
3194;DHT22;1608;50.860;13.466;2022-10-26T10:01:50;17.00;99.90
3194;DHT22;1608;50.860;13.466;2022-10-26T10:04:19;17.00;99.90
3194;DHT22;1608;50.860;13.466;2022-10-26T10:06:48;17.20;99.90
3194;DHT22;1608;50.860;13.466;2022-10-26T10:09:17;17.20;99.90
3194;DHT22;1608;50.860;13.466;2022-10-26T10:11:47;17.30;99.90
3194;DHT22;1608;50.860;13.466;2022-10-26T10:14:21;17.30;99.90
3194;DHT22;1608;50.860;13.466;2022-10-26T10:16:50;17.50;99.90
3194;DHT22;1608;50.860;13.466;2022-10-26T10:19:22;17.50;99.90
3194;DHT22;1608;50.860;13.466;2022-10-26T10:21:51;17.60;99.90
3194;DHT22;1608;50.860;13.466;2022-10-26T10:24:24;17.70;99.90
3194;DHT22;1608;50.860;13.466;2022-10-26T10:27:00;18.00;99.90
3194;DHT22;1608;50.860;13.466;2022-10-26T10:29:30;18.00;99.90
3194;DHT22;1608;50.860;13.466;2022-10-26T10:31:58;18.10;99.90
3194;DHT22;1608;50.860;13.466;2022-10-26T10:34:25;18.10;99.90
3194;DHT22;1608;50.860;13.466;2022-10-26T10:36:53;17.90;99.90
3194;DHT22;1608;50.860;13.466;2022-10-26T10:39:32;17.90;99.90
3194;DHT22;1608;50.860;13.466;2022-10-26T10:42:00;17.90;99.90
3194;DHT22;1608;50.860;13.466;2022-10-26T10:44:29;18.00;99.90
3194;DHT22;1608;50.860;13.466;2022-10-26T10:47:01;18.00;99.90
3194;DHT22;1608;50.860;13.466;2022-10-26T10:49:30;18.10;99.90
3194;DHT22;1608;50.860;13.466;2022-10-26T10:54:28;18.10;99.90
3194;DHT22;1608;50.860;13.466;2022-10-26T10:57:02;18.10;99.90
3194;DHT22;1608;50.860;13.466;2022-10-26T10:59:50;18.20;99.90
3194;DHT22;1608;50.860;13.466;2022-10-26T11:05:21;18.50;99.90
3194;DHT22;1608;50.860;13.466;2022-10-26T11:07:54;18.80;99.90
3194;DHT22;1608;50.860;13.466;2022-10-26T11:10:26;18.90;99.90
3194;DHT22;1608;50.860;13.466;2022-10-26T11:12:56;19.00;99.90
3194;DHT22;1608;50.860;13.466;2022-10-26T11:15:27;19.10;99.90
3194;DHT22;1608;50.860;13.466;2022-10-26T11:18:01;19.20;99.90
3194;DHT22;1608;50.860;13.466;2022-10-26T11:20:33;19.30;99.90
3194;DHT22;1608;50.860;13.466;2022-10-26T11:23:04;19.30;99.90
3194;DHT22;1608;50.860;13.466;2022-10-26T11:25:37;19.30;99.90
3194;DHT22;1608;50.860;13.466;2022-10-26T11:28:13;19.30;99.90
3194;DHT22;1608;50.860;13.466;2022-10-26T11:30:45;19.40;99.90
3194;DHT22;1608;50.860;13.466;2022-10-26T11:33:16;19.40;99.90
3194;DHT22;1608;50.860;13.466;2022-10-26T11:35:51;19.40;99.90
3194;DHT22;1608;50.860;13.466;2022-10-26T11:38:23;19.40;99.90
3194;DHT22;1608;50.860;13.466;2022-10-26T11:40:56;19.30;99.90
3194;DHT22;1608;50.860;13.466;2022-10-26T11:43:32;19.20;99.90
3194;DHT22;1608;50.860;13.466;2022-10-26T11:46:05;19.10;99.90
3194;DHT22;1608;50.860;13.466;2022-10-26T11:48:39;19.00;99.90
3194;DHT22;1608;50.860;13.466;2022-10-26T11:51:15;19.20;99.90
3194;DHT22;1608;50.860;13.466;2022-10-26T11:53:44;19.10;99.90
3194;DHT22;1608;50.860;13.466;2022-10-26T11:56:18;19.20;99.90
3194;DHT22;1608;50.860;13.466;2022-10-26T11:58:47;19.10;99.90
3194;DHT22;1608;50.860;13.466;2022-10-26T12:01:16;19.20;99.90
3194;DHT22;1608;50.860;13.466;2022-10-26T12:03:46;19.20;99.90
3194;DHT22;1608;50.860;13.466;2022-10-26T12:06:16;19.30;99.90
3194;DHT22;1608;50.860;13.466;2022-10-26T12:08:47;19.30;99.90
3194;DHT22;1608;50.860;13.466;2022-10-26T12:11:24;19.40;99.90
3194;DHT22;1608;50.860;13.466;2022-10-26T12:13:58;19.50;99.90
3194;DHT22;1608;50.860;13.466;2022-10-26T12:16:45;19.30;99.90
3194;DHT22;1608;50.860;13.466;2022-10-26T12:19:17;19.50;99.90
3194;DHT22;1608;50.860;13.466;2022-10-26T12:21:48;19.60;99.90
3194;DHT22;1608;50.860;13.466;2022-10-26T12:24:29;19.60;99.90
3194;DHT22;1608;50.860;13.466;2022-10-26T12:27:00;19.70;99.90
3194;DHT22;1608;50.860;13.466;2022-10-26T12:29:36;19.70;99.90
3194;DHT22;1608;50.860;13.466;2022-10-26T12:35:42;19.90;99.90
3194;DHT22;1608;50.860;13.466;2022-10-26T12:41:23;20.10;99.90
3194;DHT22;1608;50.860;13.466;2022-10-26T12:43:55;20.10;99.90
3194;DHT22;1608;50.860;13.466;2022-10-26T12:46:40;20.30;99.90
3194;DHT22;1608;50.860;13.466;2022-10-26T12:52:45;20.50;99.90
3194;DHT22;1608;50.860;13.466;2022-10-26T13:01:26;20.70;99.90
3194;DHT22;1608;50.860;13.466;2022-10-26T13:06:57;20.30;99.90
3194;DHT22;1608;50.860;13.466;2022-10-26T13:09:36;20.30;99.90
3194;DHT22;1608;50.860;13.466;2022-10-26T13:12:03;20.20;99.90
3194;DHT22;1608;50.860;13.466;2022-10-26T13:14:32;20.20;99.90
3194;DHT22;1608;50.860;13.466;2022-10-26T13:17:00;20.10;99.90
3194;DHT22;1608;50.860;13.466;2022-10-26T13:19:31;20.00;99.90
3194;DHT22;1608;50.860;13.466;2022-10-26T13:21:59;20.00;99.90
3194;DHT22;1608;50.860;13.466;2022-10-26T13:24:28;20.00;99.90
3194;DHT22;1608;50.860;13.466;2022-10-26T13:27:23;20.00;99.90
3194;DHT22;1608;50.860;13.466;2022-10-26T13:30:20;20.10;99.90
3194;DHT22;1608;50.860;13.466;2022-10-26T13:32:52;20.20;99.90
3194;DHT22;1608;50.860;13.466;2022-10-26T13:35:21;20.30;99.90
3194;DHT22;1608;50.860;13.466;2022-10-26T13:37:50;20.30;99.90
3194;DHT22;1608;50.860;13.466;2022-10-26T13:40:21;20.30;99.90
3194;DHT22;1608;50.860;13.466;2022-10-26T13:42:53;20.30;99.90
3194;DHT22;1608;50.860;13.466;2022-10-26T13:45:22;20.30;99.90
3194;DHT22;1608;50.860;13.466;2022-10-26T13:47:55;20.30;99.90
3194;DHT22;1608;50.860;13.466;2022-10-26T13:50:25;20.40;99.90
3194;DHT22;1608;50.860;13.466;2022-10-26T13:52:54;20.40;99.90
3194;DHT22;1608;50.860;13.466;2022-10-26T13:55:25;20.40;99.90
3194;DHT22;1608;50.860;13.466;2022-10-26T13:58:05;20.40;99.90
3194;DHT22;1608;50.860;13.466;2022-10-26T14:00:35;20.40;99.90
3194;DHT22;1608;50.860;13.466;2022-10-26T14:03:11;20.30;99.90
3194;DHT22;1608;50.860;13.466;2022-10-26T14:05:41;20.40;99.90
3194;DHT22;1608;50.860;13.466;2022-10-26T14:08:15;20.30;99.90
3194;DHT22;1608;50.860;13.466;2022-10-26T14:10:47;20.20;99.90
3194;DHT22;1608;50.860;13.466;2022-10-26T14:13:22;20.10;99.90
3194;DHT22;1608;50.860;13.466;2022-10-26T14:15:49;20.00;99.90
3194;DHT22;1608;50.860;13.466;2022-10-26T14:18:19;19.90;99.90
3194;DHT22;1608;50.860;13.466;2022-10-26T14:20:48;19.90;99.90
3194;DHT22;1608;50.860;13.466;2022-10-26T14:23:29;19.80;99.90
3194;DHT22;1608;50.860;13.466;2022-10-26T14:25:58;19.80;99.90
3194;DHT22;1608;50.860;13.466;2022-10-26T14:28:28;19.80;99.90
3194;DHT22;1608;50.860;13.466;2022-10-26T14:31:09;19.60;99.90
3194;DHT22;1608;50.860;13.466;2022-10-26T14:33:36;19.70;99.90
3194;DHT22;1608;50.860;13.466;2022-10-26T14:36:04;19.70;99.90
3194;DHT22;1608;50.860;13.466;2022-10-26T14:38:36;19.70;99.90
3194;DHT22;1608;50.860;13.466;2022-10-26T14:41:07;19.70;99.90
3194;DHT22;1608;50.860;13.466;2022-10-26T14:43:35;19.60;99.90
3194;DHT22;1608;50.860;13.466;2022-10-26T14:46:02;19.60;99.90
3194;DHT22;1608;50.860;13.466;2022-10-26T14:48:30;19.50;99.90
3194;DHT22;1608;50.860;13.466;2022-10-26T14:51:02;19.50;99.90
3194;DHT22;1608;50.860;13.466;2022-10-26T14:53:34;19.50;99.90
3194;DHT22;1608;50.860;13.466;2022-10-26T14:56:03;19.40;99.90
3194;DHT22;1608;50.860;13.466;2022-10-26T14:58:32;19.50;99.90
3194;DHT22;1608;50.860;13.466;2022-10-26T15:01:27;19.40;99.90
3194;DHT22;1608;50.860;13.466;2022-10-26T15:03:55;19.30;99.90
3194;DHT22;1608;50.860;13.466;2022-10-26T15:06:41;19.10;99.90
3194;DHT22;1608;50.860;13.466;2022-10-26T15:09:31;19.10;99.90
3194;DHT22;1608;50.860;13.466;2022-10-26T15:11:59;19.10;99.90
3194;DHT22;1608;50.860;13.466;2022-10-26T15:14:27;19.10;99.90
3194;DHT22;1608;50.860;13.466;2022-10-26T15:16:56;19.00;99.90
3194;DHT22;1608;50.860;13.466;2022-10-26T15:19:25;19.00;99.90
3194;DHT22;1608;50.860;13.466;2022-10-26T15:21:52;18.90;99.90
3194;DHT22;1608;50.860;13.466;2022-10-26T15:24:32;18.80;99.90
3194;DHT22;1608;50.860;13.466;2022-10-26T15:27:00;18.70;99.90
3194;DHT22;1608;50.860;13.466;2022-10-26T15:29:34;18.70;99.90
3194;DHT22;1608;50.860;13.466;2022-10-26T15:32:04;18.70;99.90
3194;DHT22;1608;50.860;13.466;2022-10-26T15:34:40;18.70;99.90
3194;DHT22;1608;50.860;13.466;2022-10-26T15:37:07;18.70;99.90
3194;DHT22;1608;50.860;13.466;2022-10-26T15:39:34;18.70;99.90
3194;DHT22;1608;50.860;13.466;2022-10-26T15:42:00;18.70;99.90
3194;DHT22;1608;50.860;13.466;2022-10-26T15:44:27;18.70;99.90
3194;DHT22;1608;50.860;13.466;2022-10-26T15:47:00;18.70;99.90
3194;DHT22;1608;50.860;13.466;2022-10-26T15:49:28;18.70;99.90
3194;DHT22;1608;50.860;13.466;2022-10-26T15:51:55;18.60;99.90
3194;DHT22;1608;50.860;13.466;2022-10-26T15:54:21;18.60;99.90
3194;DHT22;1608;50.860;13.466;2022-10-26T15:56:48;18.50;99.90
3194;DHT22;1608;50.860;13.466;2022-10-26T15:59:16;18.50;99.90
3194;DHT22;1608;50.860;13.466;2022-10-26T16:01:43;18.50;99.90
3194;DHT22;1608;50.860;13.466;2022-10-26T16:04:11;18.50;99.90
3194;DHT22;1608;50.860;13.466;2022-10-26T16:06:40;18.50;99.90
3194;DHT22;1608;50.860;13.466;2022-10-26T16:09:12;18.50;99.90
3194;DHT22;1608;50.860;13.466;2022-10-26T16:11:40;18.50;99.90
3194;DHT22;1608;50.860;13.466;2022-10-26T16:14:07;18.40;99.90
3194;DHT22;1608;50.860;13.466;2022-10-26T16:16:34;18.30;99.90
3194;DHT22;1608;50.860;13.466;2022-10-26T16:19:01;18.30;99.90
3194;DHT22;1608;50.860;13.466;2022-10-26T16:21:28;18.20;99.90
3194;DHT22;1608;50.860;13.466;2022-10-26T16:23:56;18.20;99.90
3194;DHT22;1608;50.860;13.466;2022-10-26T16:26:23;18.10;99.90
3194;DHT22;1608;50.860;13.466;2022-10-26T16:28:50;18.10;99.90
3194;DHT22;1608;50.860;13.466;2022-10-26T16:31:18;18.00;99.90
3194;DHT22;1608;50.860;13.466;2022-10-26T16:33:45;18.00;99.90
3194;DHT22;1608;50.860;13.466;2022-10-26T16:36:12;17.90;99.90
3194;DHT22;1608;50.860;13.466;2022-10-26T16:38:39;17.90;99.90
3194;DHT22;1608;50.860;13.466;2022-10-26T16:41:09;17.80;99.90
3194;DHT22;1608;50.860;13.466;2022-10-26T16:43:38;17.80;99.90
3194;DHT22;1608;50.860;13.466;2022-10-26T16:46:06;17.80;99.90
3194;DHT22;1608;50.860;13.466;2022-10-26T16:48:34;17.80;99.90
3194;DHT22;1608;50.860;13.466;2022-10-26T16:51:09;17.80;99.90